Time;durP1;ratioP1;P1;durP2;ratioP2;P2;SDS_P1;SDS_P2;PMS_P1;PMS_P2;Temp;Humidity;BMP_temperature;BMP_pressure;BME280_temperature;BME280_humidity;BME280_pressure;Samples;Min_cycle;Max_cycle;Signal;HPM_P1;HPM_P2
2024/01/21 00:00:09;;;;;;;10.48;3.95;;;1.20;99.90;;;;;;5074005;28;20052;-47
2024/01/21 00:02:35;;;;;;;7.47;3.42;;;1.00;99.90;;;;;;5073040;28;20131;-48
2024/01/21 00:05:00;;;;;;;9.35;4.03;;;1.00;99.90;;;;;;5074318;28;20128;-47
2024/01/21 00:07:26;;;;;;;7.63;3.47;;;1.10;99.90;;;;;;5073852;28;20044;-47
2024/01/21 00:09:52;;;;;;;7.40;3.47;;;1.00;99.90;;;;;;5073703;28;20251;-47
2024/01/21 00:12:17;;;;;;;8.18;3.97;;;1.00;99.90;;;;;;5073898;28;20083;-48
2024/01/21 00:14:43;;;;;;;8.45;3.90;;;1.00;99.90;;;;;;5073890;28;20041;-47
2024/01/21 00:17:09;;;;;;;8.40;3.78;;;1.10;99.90;;;;;;5072909;28;20048;-48
2024/01/21 00:19:35;;;;;;;8.82;3.50;;;1.10;99.90;;;;;;5072701;28;20048;-49
2024/01/21 00:22:00;;;;;;;8.43;4.45;;;1.10;99.90;;;;;;5073497;28;20117;-48
2024/01/21 00:24:26;;;;;;;7.97;3.17;;;1.10;99.90;;;;;;5055827;28;20048;-48
2024/01/21 00:26:52;;;;;;;6.55;3.20;;;1.10;99.90;;;;;;5073782;28;20052;-49
2024/01/21 00:29:18;;;;;;;8.30;3.80;;;1.10;99.90;;;;;;5073785;28;20088;-47
2024/01/21 00:31:44;;;;;;;6.75;3.30;;;1.10;99.90;;;;;;5073706;28;20040;-47
2024/01/21 00:34:10;;;;;;;10.07;4.05;;;1.20;99.90;;;;;;5073400;28;20055;-48
2024/01/21 00:36:35;;;;;;;10.43;3.83;;;1.20;99.90;;;;;;5072720;28;20076;-49
2024/01/21 00:39:01;;;;;;;8.25;3.95;;;1.20;99.90;;;;;;5073537;28;20572;-48
2024/01/21 00:41:27;;;;;;;8.65;3.28;;;1.20;99.90;;;;;;5073717;28;20074;-48
2024/01/21 00:43:52;;;;;;;7.97;3.72;;;1.30;99.90;;;;;;5073803;28;20044;-51
2024/01/21 00:46:18;;;;;;;8.95;3.92;;;1.10;99.90;;;;;;5073555;28;20040;-47
2024/01/21 00:48:44;;;;;;;9.05;3.80;;;1.10;99.90;;;;;;5072269;28;20045;-52
2024/01/21 00:51:09;;;;;;;8.27;3.60;;;1.10;99.90;;;;;;5073313;28;20056;-51
2024/01/21 00:53:35;;;;;;;7.65;4.22;;;1.10;99.90;;;;;;5073160;28;20044;-50
2024/01/21 00:56:01;;;;;;;9.13;4.40;;;1.00;99.90;;;;;;5073342;28;20052;-51
2024/01/21 00:58:27;;;;;;;9.98;4.82;;;1.00;99.90;;;;;;5072479;28;20119;-51
2024/01/21 01:00:52;;;;;;;9.98;4.28;;;0.90;99.90;;;;;;5073304;28;20045;-51
2024/01/21 01:03:18;;;;;;;8.20;4.13;;;1.00;99.90;;;;;;5073370;28;20131;-50
2024/01/21 01:05:43;;;;;;;9.68;4.47;;;1.00;99.90;;;;;;5073341;28;20041;-51
2024/01/21 01:08:09;;;;;;;9.38;4.35;;;0.90;99.90;;;;;;5073061;28;20045;-47
2024/01/21 01:10:35;;;;;;;10.02;4.63;;;0.90;99.90;;;;;;5073290;28;20059;-49
2024/01/21 01:13:01;;;;;;;8.63;4.50;;;0.90;99.90;;;;;;5073642;28;20040;-48
2024/01/21 01:15:27;;;;;;;9.95;4.47;;;0.90;99.90;;;;;;5073457;28;20044;-50
2024/01/21 01:17:52;;;;;;;10.85;5.03;;;0.80;99.90;;;;;;5073171;28;20048;-48
2024/01/21 01:20:18;;;;;;;9.90;4.70;;;0.80;99.90;;;;;;5073133;28;20052;-52
2024/01/21 01:22:44;;;;;;;9.95;4.78;;;0.80;99.90;;;;;;5072851;28;20123;-50
2024/01/21 01:25:09;;;;;;;10.77;4.88;;;0.80;99.90;;;;;;5073461;28;20381;-47
2024/01/21 01:27:35;;;;;;;10.27;5.00;;;0.80;99.90;;;;;;5073234;28;20045;-47
2024/01/21 01:30:01;;;;;;;11.95;5.22;;;0.80;99.90;;;;;;5073368;28;20087;-47
2024/01/21 01:32:26;;;;;;;11.77;5.67;;;0.80;99.90;;;;;;5073212;28;20123;-48
2024/01/21 01:34:55;;;;;;;9.43;4.50;;;0.70;99.90;;;;;;5072972;28;20052;-47
2024/01/21 01:37:22;;;;;;;13.15;5.63;;;0.80;99.90;;;;;;5072852;28;20127;-47
2024/01/21 01:39:47;;;;;;;;;;;0.80;99.90;;;;;;5073514;28;20052;-49
2024/01/21 01:42:13;;;;;;;9.48;4.65;;;0.70;99.90;;;;;;5072940;28;19965;-48
2024/01/21 01:44:40;;;;;;;9.03;4.77;;;0.70;99.90;;;;;;5073289;28;20067;-48
2024/01/21 01:47:09;;;;;;;8.73;4.45;;;0.70;99.90;;;;;;5074032;28;20056;-47
2024/01/21 01:49:39;;;;;;;11.18;4.53;;;0.80;99.90;;;;;;5076530;28;20048;-49
2024/01/21 01:52:05;;;;;;;8.07;3.95;;;0.80;99.90;;;;;;5076761;28;20095;-47
2024/01/21 01:54:33;;;;;;;8.98;3.97;;;0.80;99.90;;;;;;5076437;28;20143;-47
2024/01/21 01:57:02;;;;;;;9.23;4.38;;;0.80;99.90;;;;;;5076362;28;20174;-47
2024/01/21 01:59:30;;;;;;;8.88;3.95;;;0.80;99.90;;;;;;5076491;28;20396;-47
2024/01/21 02:01:56;;;;;;;11.38;4.50;;;0.80;99.90;;;;;;5076370;28;20497;-47
2024/01/21 02:04:23;;;;;;;9.02;4.32;;;1.00;99.90;;;;;;5076056;28;20067;-47
2024/01/21 02:06:48;;;;;;;11.27;4.33;;;0.90;99.90;;;;;;5077219;28;20055;-47
2024/01/21 02:09:14;;;;;;;9.48;3.88;;;0.90;99.90;;;;;;5076147;28;20629;-48
2024/01/21 02:11:39;;;;;;;9.50;4.38;;;1.00;99.90;;;;;;5076188;28;20381;-48
2024/01/21 02:14:05;;;;;;;8.27;3.70;;;0.90;99.90;;;;;;5075042;28;20053;-48
2024/01/21 02:16:31;;;;;;;8.93;3.90;;;0.90;99.90;;;;;;5074979;28;20045;-47
2024/01/21 02:18:57;;;;;;;8.48;3.72;;;1.00;99.90;;;;;;5075936;28;20395;-47
2024/01/21 02:21:23;;;;;;;8.07;3.30;;;0.90;99.90;;;;;;5076304;28;20049;-47
2024/01/21 02:23:49;;;;;;;8.75;3.88;;;0.90;99.90;;;;;;5075695;28;20063;-47
2024/01/21 02:26:14;;;;;;;8.90;3.42;;;0.90;99.90;;;;;;5074846;28;20052;-47
2024/01/21 02:28:40;;;;;;;8.63;4.35;;;0.90;99.90;;;;;;5075905;28;20053;-47
2024/01/21 02:31:06;;;;;;;8.02;3.22;;;0.90;99.90;;;;;;5075799;28;20456;-47
2024/01/21 02:33:31;;;;;;;10.75;3.70;;;0.90;99.90;;;;;;5075763;28;20040;-48
2024/01/21 02:35:57;;;;;;;8.13;3.50;;;0.90;99.90;;;;;;5075838;28;20045;-48
2024/01/21 02:38:23;;;;;;;8.98;3.45;;;0.90;99.90;;;;;;5075797;28;20049;-48
2024/01/21 02:40:49;;;;;;;8.23;3.78;;;0.90;99.90;;;;;;5074557;28;20053;-48
2024/01/21 02:43:14;;;;;;;8.77;3.45;;;0.90;99.90;;;;;;5075588;28;20051;-47
2024/01/21 02:45:40;;;;;;;8.13;2.97;;;0.90;99.90;;;;;;5075582;28;20137;-47
2024/01/21 02:48:06;;;;;;;10.70;3.60;;;0.90;99.90;;;;;;5075322;28;20399;-47
2024/01/21 02:50:32;;;;;;;8.40;3.55;;;0.90;99.90;;;;;;5074324;28;20045;-47
2024/01/21 02:52:57;;;;;;;7.43;3.60;;;0.90;99.90;;;;;;5075528;28;20037;-47
2024/01/21 02:55:23;;;;;;;7.60;3.20;;;0.80;99.90;;;;;;5075293;28;20052;-48
2024/01/21 02:57:49;;;;;;;7.68;3.88;;;0.90;99.90;;;;;;5075002;28;20049;-47
2024/01/21 03:00:15;;;;;;;7.38;2.80;;;0.90;99.90;;;;;;5073819;28;20051;-47
2024/01/21 03:02:40;;;;;;;6.97;2.80;;;0.90;99.90;;;;;;5075188;28;20040;-47
2024/01/21 03:05:06;;;;;;;6.95;2.60;;;1.00;99.90;;;;;;5075696;28;20623;-47
2024/01/21 03:07:32;;;;;;;8.55;3.40;;;0.90;99.90;;;;;;5075191;28;20101;-48
2024/01/21 03:09:58;;;;;;;6.78;2.75;;;0.90;99.90;;;;;;5075179;28;20480;-47
2024/01/21 03:12:23;;;;;;;6.15;2.55;;;0.90;99.90;;;;;;5075114;28;20395;-48
2024/01/21 03:14:49;;;;;;;8.13;2.73;;;0.90;99.90;;;;;;5075014;28;20086;-49
2024/01/21 03:17:14;;;;;;;6.75;2.75;;;0.90;99.90;;;;;;5074875;28;20041;-48
2024/01/21 03:19:40;;;;;;;5.80;2.55;;;1.00;99.90;;;;;;5074641;28;20040;-48
2024/01/21 03:22:06;;;;;;;7.43;2.42;;;1.00;99.90;;;;;;5074828;28;20446;-51
2024/01/21 03:24:31;;;;;;;5.55;2.15;;;1.00;99.90;;;;;;5074945;28;20510;-52
2024/01/21 03:26:57;;;;;;;6.43;2.50;;;1.00;99.90;;;;;;5073780;28;20491;-50
2024/01/21 03:29:24;;;;;;;8.20;2.80;;;1.00;99.90;;;;;;5074599;28;20052;-51
2024/01/21 03:31:49;;;;;;;6.45;2.40;;;1.10;99.90;;;;;;5074507;28;20139;-51
2024/01/21 03:34:15;;;;;;;5.13;2.07;;;1.00;99.90;;;;;;5074474;28;20087;-48
2024/01/21 03:36:41;;;;;;;5.88;1.88;;;1.10;99.90;;;;;;5074671;28;20052;-51
2024/01/21 03:39:06;;;;;;;5.57;1.80;;;1.10;99.90;;;;;;5074692;28;20044;-51
2024/01/21 03:41:32;;;;;;;5.93;2.20;;;1.10;99.90;;;;;;5073894;28;20506;-49
2024/01/21 03:43:58;;;;;;;5.30;2.33;;;1.10;99.90;;;;;;5074334;28;20299;-51
2024/01/21 03:46:25;;;;;;;4.90;1.77;;;1.10;99.90;;;;;;5074384;28;20059;-48
2024/01/21 03:48:51;;;;;;;5.50;1.73;;;1.10;99.90;;;;;;5073310;28;20053;-50
2024/01/21 03:51:16;;;;;;;4.10;1.52;;;1.00;99.90;;;;;;5074209;28;20089;-48
2024/01/21 03:53:42;;;;;;;4.30;1.67;;;1.00;99.90;;;;;;5074308;28;20048;-48
2024/01/21 03:56:18;;;;;;;4.38;1.80;;;1.00;99.90;;;;;;5074160;28;20049;-50
2024/01/21 03:58:44;;;;;;;4.35;1.38;;;0.90;99.90;;;;;;5074314;28;20105;-50
2024/01/21 04:01:09;;;;;;;4.77;2.07;;;1.00;99.90;;;;;;5073841;28;20052;-47
2024/01/21 04:03:35;;;;;;;3.92;1.63;;;1.00;99.90;;;;;;5074002;28;20047;-48
2024/01/21 04:06:01;;;;;;;3.47;1.27;;;1.00;99.90;;;;;;5074046;28;20048;-47
2024/01/21 04:08:26;;;;;;;4.22;1.38;;;1.00;99.90;;;;;;5073921;28;20044;-48
2024/01/21 04:10:53;;;;;;;5.28;1.83;;;1.00;99.90;;;;;;5073672;28;20135;-48
2024/01/21 04:13:20;;;;;;;;;;;1.00;99.90;;;;;;5074441;28;20053;-48
2024/01/21 04:15:46;;;;;;;4.00;1.20;;;1.00;99.90;;;;;;5073720;28;19921;-47
2024/01/21 04:18:11;;;;;;;4.00;1.50;;;1.00;99.90;;;;;;5074354;28;20106;-47
2024/01/21 04:20:37;;;;;;;3.17;1.33;;;1.00;99.90;;;;;;5073090;28;20052;-47
2024/01/21 04:23:03;;;;;;;4.10;1.40;;;1.00;99.90;;;;;;5073541;28;20122;-49
2024/01/21 04:25:28;;;;;;;3.30;1.27;;;1.00;99.90;;;;;;5073826;28;20053;-48
2024/01/21 04:27:54;;;;;;;4.03;1.40;;;1.10;99.90;;;;;;5072470;28;20044;-48
2024/01/21 04:30:20;;;;;;;4.38;1.48;;;1.00;99.90;;;;;;5055951;28;20097;-51
2024/01/21 04:32:45;;;;;;;4.03;1.30;;;1.10;99.90;;;;;;5072561;28;20040;-51
2024/01/21 04:35:11;;;;;;;3.58;1.05;;;1.10;99.90;;;;;;5073678;28;20047;-49
2024/01/21 04:37:37;;;;;;;3.53;1.23;;;1.10;99.90;;;;;;5073678;28;20127;-49
2024/01/21 04:40:03;;;;;;;3.92;1.42;;;1.10;99.90;;;;;;5073705;28;20046;-48
2024/01/21 04:42:29;;;;;;;2.80;0.90;;;1.10;99.90;;;;;;5072473;28;20052;-51
2024/01/21 04:44:55;;;;;;;3.08;1.00;;;1.10;99.90;;;;;;5073385;28;20178;-47
2024/01/21 04:47:21;;;;;;;4.90;1.73;;;1.10;99.90;;;;;;5073868;28;20045;-52
2024/01/21 04:49:46;;;;;;;3.33;1.05;;;1.10;99.90;;;;;;5073931;28;20045;-49
2024/01/21 04:52:12;;;;;;;3.83;1.10;;;1.20;99.90;;;;;;5073563;28;20040;-48
2024/01/21 04:54:38;;;;;;;2.70;0.90;;;1.20;99.90;;;;;;5073663;28;20483;-48
2024/01/21 04:57:04;;;;;;;2.80;0.90;;;1.20;99.90;;;;;;5073458;28;20483;-48
2024/01/21 04:59:29;;;;;;;3.72;1.00;;;1.20;99.90;;;;;;5073324;28;20076;-47
2024/01/21 05:01:55;;;;;;;2.10;0.90;;;1.20;99.90;;;;;;5073070;28;20044;-47
2024/01/21 05:04:21;;;;;;;4.43;1.15;;;1.20;99.90;;;;;;5073423;28;20539;-48
2024/01/21 05:06:46;;;;;;;2.67;0.77;;;1.30;99.90;;;;;;5073413;28;20549;-47
2024/01/21 05:09:12;;;;;;;2.92;1.10;;;1.30;99.90;;;;;;5073410;28;20048;-48
2024/01/21 05:11:38;;;;;;;4.95;1.10;;;1.30;99.90;;;;;;5073383;28;20056;-48
2024/01/21 05:14:03;;;;;;;2.42;0.82;;;1.30;99.90;;;;;;5073161;28;20048;-47
2024/01/21 05:16:29;;;;;;;2.97;1.10;;;1.30;99.90;;;;;;5073020;28;20048;-48
2024/01/21 05:18:56;;;;;;;3.33;1.00;;;1.30;99.90;;;;;;5073315;28;20048;-47
2024/01/21 05:21:22;;;;;;;2.83;1.05;;;1.40;99.90;;;;;;5073366;28;20055;-47
2024/01/21 05:23:52;;;;;;;4.45;1.00;;;1.30;99.90;;;;;;5077198;28;20060;-47
2024/01/21 05:26:17;;;;;;;3.75;1.33;;;1.40;99.90;;;;;;5077074;28;20122;-49
2024/01/21 05:28:44;;;;;;;3.20;0.95;;;1.40;99.90;;;;;;5076065;28;20053;-48
2024/01/21 05:31:11;;;;;;;2.08;0.90;;;1.30;99.90;;;;;;5076720;28;20068;-47
2024/01/21 05:33:38;;;;;;;4.47;1.10;;;1.40;99.90;;;;;;5077142;28;20087;-48
2024/01/21 05:36:04;;;;;;;3.58;1.00;;;1.40;99.90;;;;;;5077147;28;20041;-48
2024/01/21 05:38:29;;;;;;;4.53;1.40;;;1.40;99.90;;;;;;5076767;28;20060;-48
2024/01/21 05:40:55;;;;;;;3.75;1.20;;;1.40;99.90;;;;;;5076970;28;20484;-48
2024/01/21 05:43:21;;;;;;;4.22;1.00;;;1.40;99.90;;;;;;5076455;28;20545;-48
2024/01/21 05:45:46;;;;;;;3.40;1.08;;;1.40;99.90;;;;;;5076537;28;20519;-47
2024/01/21 05:48:12;;;;;;;3.40;1.00;;;1.30;99.90;;;;;;5075732;28;20079;-49
2024/01/21 05:50:38;;;;;;;4.20;1.20;;;1.40;99.90;;;;;;5076591;28;20048;-48
2024/01/21 05:53:05;;;;;;;2.60;0.95;;;1.40;99.90;;;;;;5076560;28;20094;-49
2024/01/21 05:55:32;;;;;;;3.42;1.05;;;1.40;99.90;;;;;;5076437;28;20127;-49
2024/01/21 05:57:57;;;;;;;4.00;1.25;;;1.40;99.90;;;;;;5076235;28;20081;-48
2024/01/21 06:00:23;;;;;;;2.83;1.10;;;1.40;99.90;;;;;;5076357;28;20044;-48
2024/01/21 06:02:52;;;;;;;2.95;1.05;;;1.40;99.90;;;;;;5076508;28;20040;-52
2024/01/21 06:05:17;;;;;;;3.22;1.13;;;1.40;99.90;;;;;;5075543;28;20048;-50
2024/01/21 06:07:44;;;;;;;5.43;1.10;;;1.40;99.90;;;;;;5076151;28;20105;-49
2024/01/21 06:10:10;;;;;;;;;;;1.40;99.90;;;;;;5076520;28;20059;-50
2024/01/21 06:12:36;;;;;;;2.65;0.93;;;1.50;99.90;;;;;;5074920;28;19920;-50
2024/01/21 06:15:02;;;;;;;4.38;1.27;;;1.50;99.90;;;;;;5076258;28;20048;-52
2024/01/21 06:17:28;;;;;;;4.32;1.42;;;1.50;99.90;;;;;;5092065;28;20059;-52
2024/01/21 06:19:53;;;;;;;3.67;1.30;;;1.50;99.90;;;;;;5075908;28;20053;-51
2024/01/21 06:22:19;;;;;;;4.30;1.30;;;1.60;99.90;;;;;;5076199;28;20135;-50
2024/01/21 06:24:45;;;;;;;3.28;1.30;;;1.60;99.90;;;;;;5075789;28;20056;-51
2024/01/21 06:27:10;;;;;;;6.03;2.10;;;1.60;99.90;;;;;;5075901;28;20391;-52
2024/01/21 06:29:36;;;;;;;4.60;1.65;;;1.60;99.90;;;;;;5075968;28;20051;-48
2024/01/21 06:32:02;;;;;;;4.87;1.70;;;1.60;99.90;;;;;;5075930;28;20114;-48
2024/01/21 06:34:28;;;;;;;5.13;1.60;;;1.60;99.90;;;;;;5074379;28;20048;-48
2024/01/21 06:36:53;;;;;;;2.70;1.13;;;1.60;99.90;;;;;;5075715;28;20048;-49
2024/01/21 06:39:19;;;;;;;4.70;1.40;;;1.60;99.90;;;;;;5075706;28;20041;-51
2024/01/21 06:41:45;;;;;;;4.63;1.88;;;1.60;99.90;;;;;;5057914;28;20139;-48
2024/01/21 06:44:10;;;;;;;5.40;1.95;;;1.70;99.90;;;;;;5075838;28;20049;-49
2024/01/21 06:46:37;;;;;;;3.58;1.55;;;1.70;99.90;;;;;;5075720;28;20037;-48
2024/01/21 06:49:02;;;;;;;5.28;2.10;;;1.70;99.90;;;;;;5075568;28;20056;-48
2024/01/21 06:51:32;;;;;;;4.38;1.88;;;1.70;99.90;;;;;;5075234;28;20048;-48
2024/01/21 06:54:03;;;;;;;5.28;2.00;;;1.70;99.90;;;;;;5075338;28;20036;-48
2024/01/21 06:56:28;;;;;;;4.45;1.65;;;1.60;99.90;;;;;;5075356;28;20044;-49
2024/01/21 06:58:54;;;;;;;5.63;1.95;;;1.70;99.90;;;;;;5074180;28;20040;-49
2024/01/21 07:01:20;;;;;;;3.97;1.77;;;1.70;99.90;;;;;;5075238;28;20048;-47
2024/01/21 07:03:46;;;;;;;4.82;1.83;;;1.70;99.90;;;;;;5075122;28;20120;-48
2024/01/21 07:06:11;;;;;;;4.72;2.03;;;1.70;99.90;;;;;;5075445;28;20040;-49
2024/01/21 07:08:38;;;;;;;5.00;1.95;;;1.70;99.90;;;;;;5075098;28;20106;-48
2024/01/21 07:11:10;;;;;;;5.43;2.40;;;1.70;99.90;;;;;;5074901;28;20511;-48
2024/01/21 07:13:36;;;;;;;5.50;2.03;;;1.70;99.90;;;;;;5075464;28;20048;-48
2024/01/21 07:16:02;;;;;;;7.67;2.60;;;1.70;99.90;;;;;;5074997;28;20041;-48
2024/01/21 07:18:28;;;;;;;4.70;1.95;;;1.70;99.90;;;;;;5074963;28;20279;-48
2024/01/21 07:20:54;;;;;;;6.45;2.97;;;1.70;99.90;;;;;;5075069;28;20098;-49
2024/01/21 07:23:20;;;;;;;5.13;2.10;;;1.60;99.90;;;;;;5074661;28;20411;-47
2024/01/21 07:25:47;;;;;;;6.13;2.22;;;1.60;99.90;;;;;;5074484;28;20052;-49
2024/01/21 07:28:12;;;;;;;6.82;2.50;;;1.70;99.90;;;;;;5074483;28;20693;-48
2024/01/21 07:30:38;;;;;;;6.93;2.67;;;1.60;99.90;;;;;;5056979;28;20114;-48
2024/01/21 07:33:04;;;;;;;5.90;2.08;;;1.70;99.90;;;;;;5074552;28;20123;-48
2024/01/21 07:35:30;;;;;;;5.15;2.25;;;1.70;99.90;;;;;;5073707;28;20056;-48
2024/01/21 07:37:55;;;;;;;5.97;2.47;;;1.70;99.90;;;;;;5074343;28;20071;-48
2024/01/21 07:40:22;;;;;;;5.68;2.13;;;1.70;99.90;;;;;;5074513;28;20056;-50
2024/01/21 07:42:47;;;;;;;5.50;2.15;;;1.70;99.90;;;;;;5073429;28;20044;-49
2024/01/21 07:45:13;;;;;;;8.40;2.80;;;1.70;99.90;;;;;;5074064;28;20455;-49
2024/01/21 07:47:39;;;;;;;7.80;2.53;;;1.70;99.90;;;;;;5074287;28;20043;-50
2024/01/21 07:50:05;;;;;;;7.07;2.78;;;1.70;99.90;;;;;;5074374;28;20040;-48
2024/01/21 07:52:32;;;;;;;6.33;2.77;;;1.70;99.90;;;;;;5074283;28;20045;-50
2024/01/21 07:54:57;;;;;;;6.80;2.63;;;1.70;99.90;;;;;;5074039;28;20131;-49
2024/01/21 07:57:24;;;;;;;7.25;2.95;;;1.70;99.90;;;;;;5074277;28;20283;-48
2024/01/21 07:59:49;;;;;;;6.95;2.40;;;1.70;99.90;;;;;;5074116;28;20044;-48
2024/01/21 08:02:15;;;;;;;4.95;2.30;;;1.60;99.90;;;;;;5073985;28;20044;-48
2024/01/21 08:04:40;;;;;;;6.28;2.67;;;1.60;99.90;;;;;;5073037;28;20052;-48
2024/01/21 08:07:06;;;;;;;5.28;2.30;;;1.70;99.90;;;;;;5074087;28;20044;-47
2024/01/21 08:09:32;;;;;;;7.10;2.73;;;1.70;99.90;;;;;;5073913;28;20048;-48
2024/01/21 08:11:57;;;;;;;6.95;2.88;;;1.60;99.90;;;;;;5072848;28;20040;-49
2024/01/21 08:14:23;;;;;;;5.85;2.42;;;1.70;99.90;;;;;;5073991;28;20045;-51
2024/01/21 08:16:49;;;;;;;7.77;2.80;;;1.70;99.90;;;;;;5073963;28;20044;-51
2024/01/21 08:19:17;;;;;;;8.57;3.13;;;1.70;99.90;;;;;;5074027;28;20127;-49
2024/01/21 08:21:42;;;;;;;8.27;2.55;;;1.70;99.90;;;;;;5072932;28;20220;-48
2024/01/21 08:24:08;;;;;;;5.72;2.45;;;1.70;99.90;;;;;;5073577;28;20064;-48
2024/01/21 08:26:34;;;;;;;6.35;3.05;;;1.70;99.90;;;;;;5073752;28;20036;-52
2024/01/21 08:29:00;;;;;;;10.17;2.50;;;1.70;99.90;;;;;;5074008;28;20051;-51
2024/01/21 08:31:25;;;;;;;5.75;2.65;;;1.70;99.90;;;;;;5073590;28;20505;-51
2024/01/21 08:33:51;;;;;;;5.90;2.30;;;1.70;99.90;;;;;;5073042;28;20058;-51
2024/01/21 08:36:16;;;;;;;6.95;2.70;;;1.70;99.90;;;;;;5073729;28;20142;-50
2024/01/21 08:38:42;;;;;;;6.23;2.80;;;1.70;99.90;;;;;;5073497;28;20052;-48
2024/01/21 08:41:08;;;;;;;5.40;2.67;;;1.70;99.90;;;;;;5073656;28;20080;-49
2024/01/21 08:43:34;;;;;;;7.18;3.13;;;1.80;99.90;;;;;;5073529;28;20101;-48
2024/01/21 08:45:59;;;;;;;7.03;2.58;;;1.80;99.90;;;;;;5072949;28;20055;-51
2024/01/21 08:48:25;;;;;;;6.90;2.50;;;1.80;99.90;;;;;;5073503;28;20040;-48
2024/01/21 08:50:51;;;;;;;8.25;2.53;;;1.90;99.90;;;;;;5073480;28;20557;-50
2024/01/21 08:53:16;;;;;;;5.78;2.45;;;1.80;99.90;;;;;;5073321;28;20044;-47
2024/01/21 08:55:42;;;;;;;5.32;2.50;;;1.80;99.90;;;;;;5073600;28;20072;-51
2024/01/21 08:58:08;;;;;;;6.15;2.50;;;1.80;99.90;;;;;;5076770;28;20048;-49
2024/01/21 09:00:34;;;;;;;6.30;2.60;;;1.80;99.90;;;;;;5077670;28;20091;-49
2024/01/21 09:02:59;;;;;;;7.22;2.67;;;1.90;99.90;;;;;;5077427;28;20036;-48
2024/01/21 09:05:27;;;;;;;6.65;2.80;;;1.90;99.90;;;;;;5076400;28;20109;-48
2024/01/21 09:07:53;;;;;;;8.18;2.78;;;1.90;99.90;;;;;;5077346;28;20055;-47
2024/01/21 09:10:20;;;;;;;7.40;2.90;;;1.90;99.90;;;;;;5077992;28;20052;-48
2024/01/21 09:12:46;;;;;;;6.88;2.70;;;1.90;99.90;;;;;;5077289;28;20080;-51
2024/01/21 09:15:12;;;;;;;7.95;3.03;;;2.00;99.90;;;;;;5077357;28;20145;-48
2024/01/21 09:17:38;;;;;;;8.20;3.03;;;2.00;99.90;;;;;;5077246;28;20054;-51
2024/01/21 09:20:04;;;;;;;6.68;2.88;;;2.00;99.90;;;;;;5077253;28;20044;-51
2024/01/21 09:22:30;;;;;;;5.40;2.88;;;2.00;99.90;;;;;;5077063;28;20084;-49
2024/01/21 09:24:55;;;;;;;7.00;2.80;;;2.00;99.90;;;;;;5077111;28;20475;-48
2024/01/21 09:27:23;;;;;;;7.97;3.05;;;2.10;99.90;;;;;;5077127;28;20088;-47
2024/01/21 09:29:48;;;;;;;8.48;2.92;;;2.10;99.90;;;;;;5076962;28;20044;-48
2024/01/21 09:32:14;;;;;;;6.95;3.17;;;2.10;99.90;;;;;;5076805;28;20040;-49
2024/01/21 09:34:40;;;;;;;5.90;2.83;;;2.20;99.90;;;;;;5076872;28;20051;-48
2024/01/21 09:37:06;;;;;;;6.03;2.47;;;2.20;99.90;;;;;;5076698;28;20083;-47
2024/01/21 09:39:32;;;;;;;7.07;3.45;;;2.20;99.90;;;;;;5076920;28;20052;-47
2024/01/21 09:41:59;;;;;;;7.83;3.67;;;2.20;99.90;;;;;;5076940;28;20048;-48
2024/01/21 09:44:27;;;;;;;6.80;3.45;;;2.20;99.90;;;;;;5076679;28;20048;-48
2024/01/21 09:47:00;;;;;;;5.90;2.70;;;2.30;99.90;;;;;;5075674;28;20139;-49
2024/01/21 09:49:26;;;;;;;8.32;2.90;;;2.30;99.90;;;;;;5076628;28;20090;-48
2024/01/21 09:51:53;;;;;;;7.18;3.05;;;2.30;99.90;;;;;;5076552;28;20084;-47
2024/01/21 09:54:20;;;;;;;8.32;2.85;;;2.40;99.90;;;;;;5076581;28;20047;-48
2024/01/21 09:56:46;;;;;;;7.90;3.25;;;2.40;99.90;;;;;;5076567;28;20123;-49
2024/01/21 09:59:13;;;;;;;7.80;3.20;;;2.40;99.90;;;;;;5075895;28;20132;-48
2024/01/21 10:01:40;;;;;;;7.30;2.90;;;2.50;99.90;;;;;;5076347;28;20119;-47
2024/01/21 10:04:14;;;;;;;8.23;3.50;;;2.50;99.90;;;;;;5076263;28;20052;-48
2024/01/21 10:06:40;;;;;;;6.85;3.30;;;2.60;99.90;;;;;;5076340;28;20564;-48
2024/01/21 10:09:22;;;;;;;6.28;3.05;;;2.60;99.90;;;;;;5075968;28;20070;-47
2024/01/21 10:11:57;;;;;;;6.80;3.45;;;2.60;99.90;;;;;;5076211;28;20152;-48
2024/01/21 10:14:27;;;;;;;7.53;3.45;;;2.60;99.90;;;;;;5076117;28;20122;-47
2024/01/21 10:16:54;;;;;;;7.78;3.13;;;2.70;99.90;;;;;;5076025;28;20127;-47
2024/01/21 10:19:28;;;;;;;8.10;3.53;;;2.70;99.90;;;;;;5076123;28;20056;-47
2024/01/21 10:22:14;;;;;;;8.52;3.35;;;2.80;99.90;;;;;;5076534;28;20384;-47
2024/01/21 10:24:41;;;;;;;7.22;3.45;;;2.80;99.90;;;;;;5075846;28;20068;-48
2024/01/21 10:27:08;;;;;;;7.15;3.35;;;2.80;99.90;;;;;;5075721;28;20055;-47
2024/01/21 10:29:44;;;;;;;9.15;3.75;;;2.90;99.90;;;;;;5076009;28;20052;-48
2024/01/21 10:32:11;;;;;;;8.90;3.85;;;3.00;99.90;;;;;;5075911;28;20087;-49
2024/01/21 10:34:44;;;;;;;9.45;3.55;;;3.10;99.90;;;;;;5075786;28;20515;-47
2024/01/21 10:37:13;;;;;;;8.18;3.95;;;3.10;99.90;;;;;;5075835;28;20044;-48
2024/01/21 10:39:43;;;;;;;10.75;4.18;;;3.10;99.90;;;;;;5075650;28;20072;-47
2024/01/21 10:42:09;;;;;;;7.70;3.80;;;3.30;99.90;;;;;;5075896;28;20079;-48
2024/01/21 10:44:35;;;;;;;9.10;4.25;;;3.30;99.90;;;;;;5075649;28;20079;-47
2024/01/21 10:47:03;;;;;;;7.72;3.50;;;3.30;99.90;;;;;;5075901;28;20047;-48
2024/01/21 10:49:32;;;;;;;7.20;3.17;;;3.30;99.90;;;;;;5075608;28;20052;-47
2024/01/21 10:51:58;;;;;;;7.80;3.53;;;3.30;99.90;;;;;;5075641;28;20048;-47
2024/01/21 10:54:25;;;;;;;7.90;3.38;;;3.30;99.90;;;;;;5075161;28;20514;-48
2024/01/21 10:56:50;;;;;;;;;;;3.30;99.90;;;;;;5075879;28;20131;-48
2024/01/21 10:59:16;;;;;;;7.10;3.75;;;3.30;99.90;;;;;;5075352;28;19964;-48
2024/01/21 11:01:43;;;;;;;10.40;4.00;;;3.30;99.90;;;;;;5075253;28;20395;-47
2024/01/21 11:04:12;;;;;;;8.82;3.45;;;3.40;99.90;;;;;;5073963;28;20503;-47
2024/01/21 11:06:48;;;;;;;8.45;3.60;;;3.40;99.90;;;;;;5075102;28;20048;-47
2024/01/21 11:09:21;;;;;;;8.10;3.50;;;3.40;99.90;;;;;;5075005;28;20049;-47
2024/01/21 11:11:49;;;;;;;8.50;3.70;;;3.40;99.90;;;;;;5075046;28;20047;-47
2024/01/21 11:14:37;;;;;;;8.32;4.05;;;3.40;99.90;;;;;;5075020;28;20044;-48
2024/01/21 11:17:12;;;;;;;;;;;3.50;99.90;;;;;;5075417;28;20052;-47
2024/01/21 11:19:55;;;;;;;9.43;3.67;;;3.50;99.90;;;;;;5074220;28;19931;-48
2024/01/21 11:22:25;;;;;;;8.80;4.45;;;3.50;99.90;;;;;;5074798;28;20127;-47
2024/01/21 11:24:53;;;;;;;8.30;3.60;;;3.60;99.90;;;;;;5075072;28;20056;-48
2024/01/21 11:27:26;;;;;;;8.93;3.95;;;3.60;99.90;;;;;;5074641;28;20052;-48
2024/01/21 11:29:57;;;;;;;8.65;3.45;;;3.60;99.90;;;;;;5074538;28;20060;-48
2024/01/21 11:32:32;;;;;;;7.95;3.38;;;3.60;99.90;;;;;;5074687;28;20070;-48
2024/01/21 11:35:13;;;;;;;8.80;3.50;;;3.60;99.90;;;;;;5074678;28;20461;-48
2024/01/21 11:37:40;;;;;;;10.55;4.00;;;3.60;99.90;;;;;;5073664;28;20041;-48
2024/01/21 11:40:07;;;;;;;7.45;3.17;;;3.60;99.90;;;;;;5074397;28;20098;-49
2024/01/21 11:42:34;;;;;;;9.82;4.07;;;3.70;99.90;;;;;;5074151;28;20045;-48
2024/01/21 11:45:04;;;;;;;7.97;3.95;;;3.70;99.90;;;;;;5075064;28;20048;-47
2024/01/21 11:47:30;;;;;;;9.45;3.70;;;3.80;99.90;;;;;;5073490;28;20057;-51
2024/01/21 11:49:58;;;;;;;10.43;4.35;;;3.80;99.90;;;;;;5074406;28;20049;-49
2024/01/21 11:52:23;;;;;;;8.60;3.97;;;3.70;99.90;;;;;;5074258;28;20040;-52
2024/01/21 11:54:49;;;;;;;9.07;3.97;;;3.80;99.90;;;;;;5074233;28;20564;-49
2024/01/21 11:57:15;;;;;;;8.87;3.97;;;3.80;99.90;;;;;;5074227;28;20045;-50
2024/01/21 11:59:41;;;;;;;8.63;3.83;;;3.80;99.90;;;;;;5074645;28;20097;-48
2024/01/21 12:02:10;;;;;;;10.38;4.15;;;3.90;99.90;;;;;;5074114;28;20044;-49
2024/01/21 12:04:39;;;;;;;10.65;4.05;;;3.80;99.90;;;;;;5074258;28;20399;-50
2024/01/21 12:07:05;;;;;;;12.15;3.90;;;3.80;99.90;;;;;;5073879;28;20044;-48
2024/01/21 12:09:31;;;;;;;6.72;3.40;;;3.80;99.90;;;;;;5073939;28;20509;-51
2024/01/21 12:11:58;;;;;;;9.75;4.00;;;3.80;99.90;;;;;;5074022;28;20053;-48
2024/01/21 12:14:25;;;;;;;7.38;3.30;;;3.80;99.90;;;;;;5074122;28;20499;-50
2024/01/21 12:16:53;;;;;;;6.63;3.17;;;3.80;99.90;;;;;;5073991;28;20466;-48
2024/01/21 12:19:19;;;;;;;11.75;4.00;;;3.80;99.90;;;;;;5073880;28;20060;-49
2024/01/21 12:21:45;;;;;;;8.52;3.83;;;3.80;99.90;;;;;;5073769;28;20131;-51
2024/01/21 12:24:12;;;;;;;8.85;4.20;;;3.80;99.90;;;;;;5073528;28;20139;-49
2024/01/21 12:26:37;;;;;;;9.55;4.15;;;3.70;99.90;;;;;;5073814;28;20472;-48
2024/01/21 12:29:10;;;;;;;10.52;3.80;;;3.80;99.90;;;;;;5073509;28;20084;-49
2024/01/21 12:31:38;;;;;;;8.48;4.20;;;3.80;99.90;;;;;;5073317;28;20404;-48
2024/01/21 12:34:05;;;;;;;8.57;4.18;;;3.90;99.90;;;;;;5073490;28;20076;-48
2024/01/21 12:36:36;;;;;;;11.18;3.90;;;3.80;99.90;;;;;;5073445;28;20385;-49
2024/01/21 12:39:04;;;;;;;9.20;3.90;;;3.80;99.90;;;;;;5073475;28;20473;-48
2024/01/21 12:41:30;;;;;;;9.45;4.00;;;3.90;99.90;;;;;;5073678;28;20506;-49
2024/01/21 12:43:56;;;;;;;9.03;4.07;;;3.90;99.90;;;;;;5073439;28;20044;-48
2024/01/21 12:46:22;;;;;;;10.45;4.07;;;3.90;99.90;;;;;;5073456;28;20286;-48
2024/01/21 12:48:49;;;;;;;8.57;3.90;;;3.90;99.90;;;;;;5073433;28;20120;-48
2024/01/21 12:51:18;;;;;;;;;;;3.80;99.90;;;;;;5073720;28;20048;-47
2024/01/21 12:53:48;;;;;;;7.05;3.38;;;3.90;99.90;;;;;;5073553;28;19920;-47